Time,TemperatureF,DewpointF,PressureIn,WindDirection,WindDirectionDegrees,WindSpeedMPH,WindSpeedGustMPH,Humidity,HourlyPrecipIn,Conditions,Clouds,dailyrainin,SoftwareType,DateUTC
2013-02-11 00:02:00,28.0,27.0,29.31,North,11,6.0,11.0,96,0.00,,,0.00,,2013-02-11 06:02:00,
2013-02-11 00:11:00,28.0,27.0,29.31,North,11,6.0,11.0,96,0.00,,,0.00,,2013-02-11 06:11:00,
2013-02-11 00:21:00,28.0,27.0,29.31,North,8,4.0,10.0,95,0.00,,,0.00,,2013-02-11 06:21:00,
2013-02-11 00:32:00,28.0,27.0,29.31,North,8,4.0,10.0,95,0.00,,,0.00,,2013-02-11 06:32:00,
2013-02-11 00:42:00,28.0,27.0,29.31,North,8,4.0,10.0,95,0.00,,,0.00,,2013-02-11 06:42:00,
2013-02-11 00:51:00,28.0,27.0,29.31,North,8,4.0,10.0,95,0.00,,,0.00,,2013-02-11 06:51:00,
2013-02-11 06:32:00,24.0,21.0,29.55,NW,321,6.0,13.0,89,0.00,,,0.00,,2013-02-11 12:32:00,
2013-02-11 06:42:00,24.0,21.0,29.57,NNW,342,3.0,11.0,89,0.00,,,0.00,,2013-02-11 12:42:00,
2013-02-11 06:52:00,24.0,21.0,29.57,NNW,342,3.0,11.0,89,0.00,,,0.00,,2013-02-11 12:52:00,
2013-02-11 07:02:00,24.0,21.0,29.58,West,276,6.0,12.0,89,0.00,,,0.00,,2013-02-11 13:02:00,
2013-02-11 07:11:00,24.0,21.0,29.59,North,11,6.0,11.0,88,0.00,,,0.00,,2013-02-11 13:11:00,
2013-02-11 07:22:00,24.0,21.0,29.59,North,11,6.0,11.0,88,0.00,,,0.00,,2013-02-11 13:22:00,
2013-02-11 07:32:00,23.0,20.0,29.60,NNW,343,6.0,12.0,88,0.00,,,0.00,,2013-02-11 13:32:00,
2013-02-11 07:42:00,23.0,20.0,29.60,NNW,343,6.0,12.0,88,0.00,,,0.00,,2013-02-11 13:42:00,
2013-02-11 07:52:00,23.0,20.0,29.62,North,1,6.0,12.0,87,0.00,,,0.00,,2013-02-11 13:52:00,
2013-02-11 08:01:00,23.0,19.0,29.62,North,356,5.0,13.0,86,0.00,,,0.00,,2013-02-11 14:01:00,
2013-02-11 08:11:00,23.0,19.0,29.62,North,356,5.0,13.0,86,0.00,,,0.00,,2013-02-11 14:11:00,
2013-02-11 08:22:00,23.0,19.0,29.64,NNW,346,4.0,13.0,85,0.00,,,0.00,,2013-02-11 14:22:00,
2013-02-11 08:32:00,23.0,19.0,29.65,WNW,301,5.0,12.0,85,0.00,,,0.00,,2013-02-11 14:32:00,
2013-02-11 08:42:00,23.0,19.0,29.65,WNW,301,5.0,12.0,85,0.00,,,0.00,,2013-02-11 14:42:00,
2013-02-11 08:53:00,23.0,19.0,29.65,NNW,328,5.0,12.0,85,0.00,,,0.00,,2013-02-11 14:53:00,
2013-02-11 09:02:00,23.0,19.0,29.65,NNW,328,5.0,12.0,85,0.00,,,0.00,,2013-02-11 15:02:00,
2013-02-11 09:11:00,23.0,19.0,29.65,NNW,328,5.0,12.0,85,0.00,,,0.00,,2013-02-11 15:11:00,
2013-02-11 09:22:00,23.0,19.0,29.65,NNW,328,5.0,12.0,85,0.00,,,0.00,,2013-02-11 15:22:00,
2013-02-11 16:32:00,23.0,17.0,29.88,NNE,16,7.0,15.0,77,0.00,,,0.00,,2013-02-11 22:32:00,
2013-02-11 16:42:00,23.0,17.0,29.88,NNE,16,7.0,15.0,77,0.00,,,0.00,,2013-02-11 22:42:00,
2013-02-11 16:52:00,22.0,16.0,29.88,NW,304,6.0,13.0,78,0.00,,,0.00,,2013-02-11 22:52:00,
2013-02-11 17:02:00,22.0,16.0,29.89,NNW,333,7.0,13.0,77,0.00,,,0.00,,2013-02-11 23:02:00,
2013-02-11 17:11:00,22.0,16.0,29.89,NNW,333,7.0,13.0,77,0.00,,,0.00,,2013-02-11 23:11:00,
2013-02-11 17:21:00,22.0,16.0,29.89,NW,326,5.0,15.0,78,0.00,,,0.00,,2013-02-11 23:21:00,
2013-02-11 17:32:00,22.0,16.0,29.89,NW,326,5.0,15.0,78,0.00,,,0.00,,2013-02-11 23:32:00,
2013-02-11 17:42:00,22.0,16.0,29.89,NW,326,5.0,15.0,78,0.00,,,0.00,,2013-02-11 23:42:00,
2013-02-11 17:52:00,22.0,16.0,29.89,NW,326,5.0,15.0,78,0.00,,,0.00,,2013-02-11 23:52:00,
2013-02-11 21:02:00,18.0,13.0,29.96,NW,309,2.0,7.0,81,0.00,,,0.00,,2013-02-12 03:02:00,
2013-02-11 21:11:00,18.0,13.0,29.96,NW,309,2.0,7.0,81,0.00,,,0.00,,2013-02-12 03:11:00,
2013-02-11 21:21:00,17.0,12.0,29.96,North,1,2.0,6.0,82,0.00,,,0.00,,2013-02-12 03:21:00,
2013-02-11 21:32:00,17.0,12.0,29.96,NW,324,2.0,6.0,82,0.00,,,0.00,,2013-02-12 03:32:00,
2013-02-11 21:42:00,17.0,12.0,29.96,NW,324,2.0,6.0,82,0.00,,,0.00,,2013-02-12 03:42:00,
2013-02-11 21:52:00,17.0,12.0,29.97,NNW,340,1.0,5.0,82,0.00,,,0.00,,2013-02-12 03:52:00,
2013-02-11 22:01:00,16.0,11.0,29.97,WNW,303,0.0,2.0,82,0.00,,,0.00,,2013-02-12 04:01:00,
2013-02-11 22:11:00,16.0,11.0,29.97,WNW,303,0.0,2.0,82,0.00,,,0.00,,2013-02-12 04:11:00,
2013-02-11 22:21:00,15.0,11.0,29.97,WNW,284,0.0,1.0,83,0.00,,,0.00,,2013-02-12 04:21:00,
2013-02-11 22:31:00,14.0,10.0,29.98,WNW,284,0.0,0.0,85,0.00,,,0.00,,2013-02-12 04:31:00,
2013-02-11 22:41:00,14.0,10.0,29.98,WNW,284,0.0,0.0,85,0.00,,,0.00,,2013-02-12 04:41:00,
2013-02-11 22:52:00,12.0,9.0,29.98,WNW,284,0.0,0.0,87,0.00,,,0.00,,2013-02-12 04:52:00,
2013-02-11 23:01:00,12.0,9.0,29.98,WSW,238,0.0,0.0,88,0.00,,,0.00,,2013-02-12 05:01:00,
2013-02-11 23:11:00,12.0,9.0,29.98,WSW,238,0.0,0.0,88,0.00,,,0.00,,2013-02-12 05:11:00,
2013-02-11 23:21:00,12.0,9.0,29.98,WSW,238,0.0,0.0,88,0.00,,,0.00,,2013-02-12 05:21:00,
2013-02-11 23:31:00,12.0,9.0,29.98,WSW,238,0.0,0.0,88,0.00,,,0.00,,2013-02-12 05:31:00,